createdAt,value
2018-06-08T00:04:21.160Z,9.3
2018-06-08T00:10:16.034Z,10.18
2018-06-08T00:16:11.022Z,11.26
2018-06-08T00:22:06.057Z,10.99
2018-06-08T00:28:01.044Z,10.1
2018-06-08T00:33:56.051Z,12.22
2018-06-08T00:39:51.084Z,11.44
2018-06-08T00:45:46.132Z,9.75
2018-06-08T00:51:41.023Z,8.45
2018-06-08T00:57:36.056Z,9.77
2018-06-08T01:03:31.506Z,10.51
2018-06-08T01:09:26.090Z,9.47
2018-06-08T01:15:21.085Z,8.44
2018-06-08T01:21:16.095Z,9.32
2018-06-08T01:27:19.184Z,8.84
2018-06-08T01:33:06.097Z,9.28
2018-06-08T01:39:01.108Z,12.29
2018-06-08T01:44:56.084Z,13.23
2018-06-08T01:50:51.107Z,13.11
2018-06-08T01:56:46.109Z,11.2
2018-06-08T02:02:41.153Z,11.07
2018-06-08T02:08:36.117Z,10.27
2018-06-08T02:14:31.162Z,10.55
2018-06-08T02:20:26.124Z,8.45
2018-06-08T02:26:21.133Z,6.56
2018-06-08T02:32:16.103Z,4.87
2018-06-08T02:38:11.156Z,5.3
2018-06-08T02:44:06.157Z,5.07
2018-06-08T02:50:01.143Z,8.1
2018-06-08T02:55:56.124Z,5.06
2018-06-08T03:01:51.172Z,4.8
2018-06-08T03:07:46.146Z,5.68
2018-06-08T03:13:41.155Z,6.73
2018-06-08T03:19:36.166Z,7.34
2018-06-08T03:25:31.170Z,6.67
2018-06-08T03:31:26.208Z,5.71
2018-06-08T03:37:21.192Z,5.51
2018-06-08T03:43:16.424Z,4.81
2018-06-08T03:49:11.159Z,3.07
2018-06-08T03:55:06.179Z,3.38
2018-06-08T04:01:01.277Z,3.07
2018-06-08T04:06:56.210Z,4.05
2018-06-08T04:12:51.167Z,3.7
2018-06-08T04:18:46.215Z,4.88
2018-06-08T04:24:41.211Z,3.41
2018-06-08T04:30:36.222Z,4.41
2018-06-08T04:36:31.266Z,3.35
2018-06-08T04:42:26.227Z,4.26
2018-06-08T04:48:21.236Z,5.24
2018-06-08T04:54:16.219Z,7.14
2018-06-08T05:00:12.241Z,9.18
2018-06-08T05:06:06.446Z,8.05
2018-06-08T05:12:01.354Z,8.04
2018-06-08T05:17:56.299Z,7.46
2018-06-08T05:23:51.296Z,8.62
2018-06-08T05:29:46.263Z,9.13
2018-06-08T05:35:41.332Z,9.67
2018-06-08T05:41:36.316Z,11.28
2018-06-08T05:47:31.288Z,10.97
2018-06-08T05:53:26.255Z,9.88
2018-06-08T05:59:21.257Z,9.41
2018-06-08T06:05:16.411Z,9.77
2018-06-08T06:11:11.300Z,8.57
2018-06-08T06:17:06.388Z,8.43
2018-06-08T06:23:01.261Z,8.58
2018-06-08T06:28:56.336Z,8.04
2018-06-08T06:34:51.293Z,7.43
2018-06-08T06:40:46.346Z,7.5
2018-06-08T06:46:41.273Z,5.41
2018-06-08T06:52:36.984Z,5.48
2018-06-08T06:58:31.340Z,4.79
2018-06-08T07:04:26.357Z,5.39
2018-06-08T07:10:21.322Z,4.94
2018-06-08T07:16:16.394Z,5.2
2018-06-08T07:22:11.305Z,4.88
2018-06-08T07:28:06.356Z,4.29
2018-06-08T07:34:01.381Z,4.13
2018-06-08T07:39:56.359Z,4.71
2018-06-08T07:45:51.344Z,4.3
2018-06-08T07:51:46.393Z,3.7
2018-06-08T07:57:41.378Z,4.14
2018-06-08T08:03:36.429Z,3.33
2018-06-08T08:09:31.414Z,4.31
2018-06-08T08:15:26.385Z,3.99
2018-06-08T08:21:21.402Z,5.36
2018-06-08T08:27:16.458Z,3.65
2018-06-08T08:33:11.435Z,4.16
2018-06-08T08:39:06.403Z,4.39
2018-06-08T08:45:01.512Z,3.37
2018-06-08T08:50:56.407Z,3.6
2018-06-08T08:56:51.429Z,3.97
2018-06-08T09:02:46.409Z,3.13
2018-06-08T09:08:41.456Z,2.75
2018-06-08T09:14:36.396Z,2.58
2018-06-08T09:20:31.483Z,3.07
2018-06-08T09:26:26.433Z,2.23
2018-06-08T09:32:21.408Z,2.41
2018-06-08T09:38:16.497Z,2.47
2018-06-08T09:44:12.312Z,2.54
2018-06-08T09:50:06.789Z,2.18
2018-06-08T09:56:01.446Z,1.87
2018-06-08T10:01:56.482Z,2.18
2018-06-08T10:07:51.497Z,2.41
2018-06-08T10:13:46.610Z,2
2018-06-08T10:19:41.521Z,1.5
2018-06-08T10:25:36.544Z,1.76
2018-06-08T10:31:31.487Z,1.97
2018-06-08T10:37:26.508Z,5.97
2018-06-08T10:43:22.351Z,1.75
2018-06-08T10:49:16.556Z,1.23
2018-06-08T10:55:11.545Z,0.94
2018-06-08T11:01:06.517Z,1.09
2018-06-08T11:07:01.532Z,0.91
2018-06-08T11:13:11.844Z,0.76
2018-06-08T11:18:51.587Z,0.74
2018-06-08T11:24:49.129Z,0.98
2018-06-08T11:30:41.561Z,0.81
2018-06-08T11:36:37.014Z,0.82
2018-06-08T11:42:31.594Z,1.27
2018-06-08T11:48:26.551Z,0.73
2018-06-08T11:54:21.629Z,0.78
2018-06-08T12:00:16.546Z,0.7
2018-06-08T12:06:11.508Z,0.84
2018-06-08T12:12:06.677Z,0.72
2018-06-08T12:18:01.572Z,0.81
2018-06-08T12:23:56.630Z,1.07
2018-06-08T12:29:51.583Z,0.66
2018-06-08T12:35:46.574Z,0.91
2018-06-08T12:41:41.631Z,0.61
2018-06-08T12:47:37.043Z,0.87
2018-06-08T12:53:31.919Z,0.62
2018-06-08T12:59:26.681Z,0.71
2018-06-08T13:05:22.472Z,0.77
2018-06-08T13:11:16.695Z,0.77
2018-06-08T13:17:11.666Z,0.83
2018-06-08T13:23:06.970Z,0.9
2018-06-08T13:29:01.616Z,0.44
2018-06-08T13:34:56.925Z,0.83
2018-06-08T13:40:52.072Z,1.16
2018-06-08T13:46:46.643Z,0.61
2018-06-08T13:52:41.860Z,0.51
2018-06-08T13:58:36.852Z,0.59
2018-06-08T14:04:31.668Z,0.61
2018-06-08T14:10:28.273Z,0.83
2018-06-08T14:16:22.754Z,0.61
2018-06-08T14:22:17.040Z,0.66
2018-06-08T14:28:12.407Z,0.67
2018-06-08T14:34:17.413Z,0.82
2018-06-08T14:40:01.731Z,3.07
2018-06-08T14:45:56.690Z,3.03
2018-06-08T14:51:51.705Z,2.58
2018-06-08T14:57:46.740Z,2.38
2018-06-08T15:03:43.311Z,2.22
2018-06-08T15:09:36.713Z,1.73
2018-06-08T15:15:31.745Z,1.52
2018-06-08T15:21:27.217Z,2.73
2018-06-08T15:27:21.808Z,1.93
2018-06-08T15:33:16.986Z,1.88
2018-06-08T15:39:11.838Z,2.1
2018-06-08T15:45:07.336Z,1.99
2018-06-08T15:51:01.929Z,1.64
2018-06-08T15:56:56.788Z,1.67
2018-06-08T16:02:52.026Z,1.95
2018-06-08T16:08:46.772Z,1.8
2018-06-08T16:14:41.981Z,2.13
2018-06-08T16:20:37.090Z,2.22
2018-06-08T16:26:31.759Z,2.16
2018-06-08T16:32:26.829Z,2.74
2018-06-08T16:38:21.814Z,2.44
2018-06-08T16:44:17.802Z,4.19
2018-06-08T16:50:12.972Z,3.6
2018-06-08T16:56:07.189Z,2.56
2018-06-08T17:02:02.026Z,2.92
2018-06-08T17:07:56.843Z,2.33
2018-06-08T17:13:51.887Z,2.69
2018-06-08T17:19:46.917Z,2.89
2018-06-08T17:25:41.858Z,3.02
2018-06-08T17:31:36.818Z,2.83
2018-06-08T17:37:31.858Z,2.91
2018-06-08T17:43:26.877Z,3.03
2018-06-08T17:49:22.733Z,2.88
2018-06-08T17:55:16.868Z,3.17
2018-06-08T18:01:12.636Z,3.03
2018-06-08T18:07:07.008Z,2.62
2018-06-08T18:13:01.889Z,2.54
2018-06-08T18:18:56.924Z,3.35
2018-06-08T18:24:52.964Z,3.36
2018-06-08T18:31:01.609Z,3.34
2018-06-08T18:36:41.966Z,3.77
2018-06-08T18:42:36.907Z,4.31
2018-06-08T18:48:31.943Z,4.18
2018-06-08T18:54:26.945Z,4.34
2018-06-08T19:00:21.899Z,4.33
2018-06-08T19:06:17.161Z,3.94
2018-06-08T19:12:12.960Z,4
2018-06-08T19:18:06.907Z,4.31
2018-06-08T19:24:02.494Z,4.34
2018-06-08T19:29:56.946Z,4.84
2018-06-08T19:35:51.952Z,5.17
2018-06-08T19:41:47.203Z,4.17
2018-06-08T19:47:41.999Z,5.69
2018-06-08T19:53:37.053Z,4.19
2018-06-08T19:59:31.954Z,4.7
2018-06-08T20:05:26.955Z,4.53
2018-06-08T20:11:22.749Z,4.76
2018-06-08T20:17:17.045Z,5.14
2018-06-08T20:23:11.992Z,4.53
2018-06-08T20:29:06.967Z,5.78
2018-06-08T20:35:03.145Z,5.75
2018-06-08T20:40:58.635Z,5.87
2018-06-08T20:46:52.009Z,6.05
2018-06-08T20:52:47.068Z,6.69
2018-06-08T20:58:42.633Z,6.57
2018-06-08T21:04:36.999Z,6.92
2018-06-08T21:10:32.022Z,5.83
2018-06-08T21:16:27.020Z,6.43
2018-06-08T21:22:22.065Z,6.83
2018-06-08T21:28:17.042Z,7.1
2018-06-08T21:34:11.989Z,6.32
2018-06-08T21:40:07.465Z,7.32
2018-06-08T21:46:02.181Z,6.33
2018-06-08T21:51:57.654Z,5.59
2018-06-08T21:57:52.042Z,5.74
2018-06-08T22:03:47.059Z,6.03
2018-06-08T22:09:42.117Z,6.55
2018-06-08T22:15:37.036Z,6.6
2018-06-08T22:21:32.062Z,5.8
2018-06-08T22:27:27.042Z,6.5
2018-06-08T22:33:22.069Z,6.47
2018-06-08T22:39:17.079Z,5.99
2018-06-08T22:45:12.083Z,5.72
2018-06-08T22:51:07.089Z,6.1
2018-06-08T22:57:02.089Z,7.55
2018-06-08T23:02:57.061Z,7.54
2018-06-08T23:08:52.098Z,7.88
2018-06-08T23:14:47.703Z,6.74
2018-06-08T23:20:42.373Z,7.43
2018-06-08T23:26:37.083Z,10.34
2018-06-08T23:32:32.084Z,8.06
2018-06-08T23:38:27.250Z,8.53
2018-06-08T23:44:22.108Z,8.66
2018-06-08T23:50:17.893Z,7.73
2018-06-08T23:56:12.150Z,7.72
